createdAt,value
2017-12-25T00:00:30.206Z,3.10
2017-12-25T00:01:30.202Z,3.50
2017-12-25T00:02:30.195Z,4.00
2017-12-25T00:03:30.189Z,3.50
2017-12-25T00:04:30.181Z,2.40
2017-12-25T00:05:30.183Z,2.70
2017-12-25T00:06:30.202Z,2.70
2017-12-25T00:07:30.287Z,4.60
2017-12-25T00:08:30.161Z,3.60
2017-12-25T00:09:30.155Z,3.00
2017-12-25T00:10:30.150Z,2.70
2017-12-25T00:11:30.143Z,3.70
2017-12-25T00:12:30.137Z,2.90
2017-12-25T00:13:30.131Z,4.10
2017-12-25T00:14:30.125Z,2.40
2017-12-25T00:15:30.115Z,2.60
2017-12-25T00:16:30.108Z,2.90
2017-12-25T00:17:30.103Z,3.80
2017-12-25T00:18:30.098Z,5.20
2017-12-25T00:19:30.089Z,2.90
2017-12-25T00:20:30.085Z,4.10
2017-12-25T00:21:30.078Z,3.10
2017-12-25T00:22:30.072Z,4.10
2017-12-25T00:23:30.070Z,3.30
2017-12-25T00:24:30.064Z,2.90
2017-12-25T00:25:30.059Z,2.70
2017-12-25T00:26:30.054Z,3.00
2017-12-25T00:27:30.047Z,2.90
2017-12-25T00:28:30.040Z,3.00
2017-12-25T00:29:30.034Z,2.70
2017-12-25T00:30:30.029Z,3.70
2017-12-25T00:31:30.017Z,3.10
2017-12-25T00:32:30.016Z,4.40
2017-12-25T00:33:30.007Z,3.30
2017-12-25T00:34:30.002Z,2.70
2017-12-25T00:35:29.997Z,2.90
2017-12-25T00:36:29.992Z,3.00
2017-12-25T00:37:29.985Z,3.20
2017-12-25T00:38:29.980Z,4.20
2017-12-25T00:39:29.969Z,3.00
2017-12-25T00:40:29.963Z,2.70
2017-12-25T00:41:29.957Z,2.60
2017-12-25T00:42:29.951Z,2.90
2017-12-25T00:43:29.946Z,2.90
2017-12-25T00:44:29.939Z,2.60
2017-12-25T00:45:29.933Z,3.00
2017-12-25T00:46:29.927Z,4.60
2017-12-25T00:47:29.925Z,2.90
2017-12-25T00:48:29.920Z,2.70
2017-12-25T00:49:29.914Z,3.00
2017-12-25T00:50:29.907Z,2.70
2017-12-25T00:51:29.904Z,3.40
2017-12-25T00:52:29.895Z,3.90
2017-12-25T00:53:29.889Z,3.40
2017-12-25T00:54:29.884Z,3.20
2017-12-25T00:55:29.873Z,3.60
2017-12-25T00:56:29.868Z,3.10
2017-12-25T00:57:29.861Z,3.30
2017-12-25T00:58:29.868Z,3.00
2017-12-25T00:59:29.851Z,3.40
2017-12-25T01:00:29.844Z,3.10
2017-12-25T01:01:29.837Z,2.70
2017-12-25T01:02:29.832Z,3.80
2017-12-25T01:03:29.829Z,3.40
2017-12-25T01:04:29.823Z,3.00
2017-12-25T01:05:29.818Z,3.50
2017-12-25T01:06:29.813Z,3.60
2017-12-25T01:07:29.805Z,3.00
2017-12-25T01:08:29.799Z,3.70
2017-12-25T01:09:29.793Z,3.10
2017-12-25T01:10:29.788Z,3.00
2017-12-25T01:11:29.777Z,3.20
2017-12-25T01:12:29.771Z,3.20
2017-12-25T01:13:29.766Z,3.20
2017-12-25T01:14:29.760Z,3.20
2017-12-25T01:15:29.753Z,3.20
2017-12-25T01:16:29.747Z,3.50
2017-12-25T01:17:29.749Z,3.40
2017-12-25T01:18:29.737Z,4.00
2017-12-25T01:19:29.734Z,3.50
2017-12-25T01:20:29.728Z,3.40
2017-12-25T01:21:29.722Z,3.60
2017-12-25T01:22:29.716Z,3.40
2017-12-25T01:23:29.712Z,5.50
2017-12-25T01:24:29.705Z,3.80
2017-12-25T01:25:29.699Z,3.30
2017-12-25T01:26:29.692Z,3.40
2017-12-25T01:27:29.681Z,3.50
2017-12-25T01:28:29.675Z,3.20
2017-12-25T01:29:29.669Z,2.90
2017-12-25T01:30:29.664Z,3.20
2017-12-25T01:31:29.656Z,2.80
2017-12-25T01:32:29.652Z,3.50
2017-12-25T01:33:29.646Z,3.20
2017-12-25T01:34:29.639Z,3.10
2017-12-25T01:35:29.636Z,3.30
2017-12-25T01:36:29.630Z,4.60
2017-12-25T01:37:29.624Z,3.30
2017-12-25T01:38:29.619Z,3.10
2017-12-25T01:39:29.607Z,2.90
2017-12-25T01:40:29.601Z,2.90
2017-12-25T01:41:29.596Z,3.30
2017-12-25T01:42:29.590Z,3.40
2017-12-25T01:43:29.586Z,3.50
2017-12-25T01:44:29.581Z,3.20
2017-12-25T01:45:29.574Z,3.60
2017-12-25T01:46:29.568Z,3.40
2017-12-25T01:47:29.561Z,3.60
2017-12-25T01:48:29.555Z,5.50
2017-12-25T01:49:29.550Z,3.90
2017-12-25T01:50:29.544Z,4.00
2017-12-25T01:51:29.531Z,4.80
2017-12-25T01:52:29.525Z,6.20
2017-12-25T01:53:29.520Z,8.30
2017-12-25T01:54:29.512Z,6.60
2017-12-25T01:55:29.506Z,4.90
2017-12-25T01:56:29.501Z,5.20
2017-12-25T01:57:29.494Z,5.50
2017-12-25T01:58:29.488Z,4.70
2017-12-25T01:59:29.484Z,5.00
2017-12-25T02:00:29.478Z,6.60
2017-12-25T02:01:29.473Z,5.90
2017-12-25T02:02:29.465Z,4.50
2017-12-25T02:03:29.459Z,5.00
2017-12-25T02:04:29.453Z,6.70
2017-12-25T02:05:29.446Z,5.30
2017-12-25T02:06:29.440Z,4.40
2017-12-25T02:07:29.430Z,5.40
2017-12-25T02:08:29.425Z,4.40
2017-12-25T02:09:29.416Z,5.00
2017-12-25T02:10:29.409Z,4.50
2017-12-25T02:11:29.402Z,4.90
2017-12-25T02:12:29.397Z,5.20
2017-12-25T02:13:29.389Z,5.70
2017-12-25T02:14:29.383Z,5.50
2017-12-25T02:15:29.379Z,5.70
2017-12-25T02:16:29.373Z,6.50
2017-12-25T02:17:29.366Z,7.80
2017-12-25T02:18:29.362Z,7.30
2017-12-25T02:19:29.354Z,6.70
2017-12-25T02:20:29.351Z,4.90
2017-12-25T02:21:29.342Z,4.70
2017-12-25T02:22:29.335Z,5.10
2017-12-25T02:23:29.324Z,5.70
2017-12-25T02:24:29.317Z,8.70
2017-12-25T02:25:29.310Z,5.10
2017-12-25T02:26:29.303Z,6.20
2017-12-25T02:27:29.296Z,6.00
2017-12-25T02:28:29.296Z,6.00
2017-12-25T02:29:29.284Z,11.10
2017-12-25T02:30:29.280Z,7.80
2017-12-25T02:31:29.275Z,7.80
2017-12-25T02:32:29.269Z,6.20
2017-12-25T02:33:29.263Z,5.70
2017-12-25T02:34:29.256Z,5.40
2017-12-25T02:35:29.250Z,6.40
2017-12-25T02:36:29.244Z,5.40
2017-12-25T02:37:29.237Z,8.90
2017-12-25T02:38:29.230Z,5.90
2017-12-25T02:39:29.220Z,5.60
2017-12-25T02:40:29.212Z,6.70
2017-12-25T02:41:29.207Z,6.90
2017-12-25T02:42:29.200Z,5.60
2017-12-25T02:43:29.198Z,6.20
2017-12-25T02:44:29.190Z,7.60
2017-12-25T02:45:29.184Z,5.70
2017-12-25T02:46:29.178Z,6.60
2017-12-25T02:47:29.166Z,5.90
2017-12-25T02:48:29.159Z,8.50
2017-12-25T02:49:29.153Z,5.90
2017-12-25T02:50:29.148Z,8.90
2017-12-25T02:51:29.139Z,5.30
2017-12-25T02:52:29.133Z,6.90
2017-12-25T02:53:29.127Z,5.70
2017-12-25T02:54:29.136Z,7.80
2017-12-25T02:55:29.118Z,6.00
2017-12-25T02:56:29.111Z,6.50
2017-12-25T02:57:29.107Z,7.70
2017-12-25T02:58:29.099Z,5.40
2017-12-25T02:59:29.091Z,5.80
2017-12-25T03:00:29.085Z,5.60
2017-12-25T03:01:29.079Z,6.20
2017-12-25T03:02:29.073Z,7.80
2017-12-25T03:03:29.061Z,7.20
2017-12-25T03:04:29.054Z,5.50
2017-12-25T03:05:29.048Z,6.30
2017-12-25T03:06:29.047Z,5.60
2017-12-25T03:07:29.034Z,6.70
2017-12-25T03:08:29.027Z,6.00
2017-12-25T03:09:29.020Z,5.70
2017-12-25T03:10:29.016Z,5.00
2017-12-25T03:11:29.012Z,5.20
2017-12-25T03:12:29.005Z,8.10
2017-12-25T03:13:28.999Z,5.00
2017-12-25T03:14:28.992Z,5.00
2017-12-25T03:15:28.986Z,5.80
2017-12-25T03:16:28.979Z,6.80
2017-12-25T03:17:28.972Z,6.10
2017-12-25T03:18:28.965Z,6.80
2017-12-25T03:19:28.953Z,6.00
2017-12-25T03:20:28.948Z,5.80
2017-12-25T03:21:28.941Z,5.80
2017-12-25T03:22:28.935Z,6.80
2017-12-25T03:23:28.927Z,5.10
2017-12-25T03:24:28.920Z,6.00
2017-12-25T03:25:28.913Z,5.40
2017-12-25T03:26:28.907Z,5.60
2017-12-25T03:27:28.903Z,6.00
2017-12-25T03:28:28.897Z,6.00
2017-12-25T03:29:28.890Z,5.00
2017-12-25T03:30:28.888Z,6.00
2017-12-25T03:31:28.877Z,6.50
2017-12-25T03:32:28.870Z,4.90
2017-12-25T03:33:28.863Z,6.70
2017-12-25T03:34:28.856Z,5.20
2017-12-25T03:35:28.845Z,4.90
2017-12-25T03:36:28.838Z,4.40
2017-12-25T03:37:28.832Z,7.00
2017-12-25T03:38:28.826Z,4.70
2017-12-25T03:39:28.816Z,6.70
2017-12-25T03:40:28.811Z,7.80
2017-12-25T03:41:28.804Z,4.80
2017-12-25T03:42:28.800Z,7.70
2017-12-25T03:43:28.794Z,6.30
2017-12-25T03:44:28.788Z,4.70
2017-12-25T03:45:28.781Z,5.40
2017-12-25T03:46:28.775Z,4.40
2017-12-25T03:47:28.764Z,4.50
2017-12-25T03:48:28.758Z,4.50
2017-12-25T03:49:28.751Z,4.60
2017-12-25T03:50:28.744Z,4.60
2017-12-25T03:51:28.740Z,4.90
2017-12-25T03:52:28.734Z,4.00
2017-12-25T03:53:28.729Z,5.00
2017-12-25T03:54:28.741Z,4.30
2017-12-25T03:55:28.714Z,4.00
2017-12-25T03:56:28.707Z,4.10
2017-12-25T03:57:28.701Z,5.30
2017-12-25T03:58:28.694Z,4.20
2017-12-25T03:59:28.682Z,4.20
2017-12-25T04:00:28.677Z,4.50
2017-12-25T04:01:28.671Z,4.10
2017-12-25T04:02:28.663Z,4.40
2017-12-25T04:03:28.656Z,4.20
2017-12-25T04:04:28.649Z,3.70
2017-12-25T04:05:28.643Z,4.50
2017-12-25T04:06:28.639Z,3.60
2017-12-25T04:07:28.633Z,3.80
2017-12-25T04:08:28.627Z,4.30
2017-12-25T04:09:28.621Z,3.40
2017-12-25T04:10:28.616Z,5.50
2017-12-25T04:11:28.607Z,4.10
2017-12-25T04:12:28.601Z,4.40
2017-12-25T04:13:28.597Z,5.50
2017-12-25T04:14:28.588Z,3.70
2017-12-25T04:15:28.578Z,3.10
2017-12-25T04:16:28.572Z,3.30
2017-12-25T04:17:28.565Z,3.30
2017-12-25T04:18:28.560Z,3.10
2017-12-25T04:19:28.551Z,2.70
2017-12-25T04:20:28.544Z,2.80
2017-12-25T04:21:28.538Z,2.40
2017-12-25T04:22:28.533Z,2.70
2017-12-25T04:23:28.529Z,2.50
2017-12-25T04:24:28.523Z,2.80
2017-12-25T04:25:28.517Z,2.60
2017-12-25T04:26:28.510Z,2.50
2017-12-25T04:27:28.503Z,2.60
2017-12-25T04:28:28.496Z,2.80
2017-12-25T04:29:28.490Z,3.70
2017-12-25T04:30:28.484Z,2.00
2017-12-25T04:31:28.473Z,2.10
2017-12-25T04:32:28.467Z,3.80
2017-12-25T04:33:28.461Z,1.90
2017-12-25T04:34:28.454Z,2.10
2017-12-25T04:35:28.455Z,2.10
2017-12-25T04:36:28.441Z,2.50
2017-12-25T04:37:28.434Z,1.80
2017-12-25T04:38:28.428Z,1.70
2017-12-25T04:39:28.425Z,2.00
2017-12-25T04:40:28.419Z,2.20
2017-12-25T04:41:28.414Z,2.00
2017-12-25T04:42:28.407Z,2.90
2017-12-25T04:43:28.401Z,1.80
2017-12-25T04:44:28.395Z,1.60
2017-12-25T04:45:28.387Z,1.80
2017-12-25T04:46:28.383Z,1.70
2017-12-25T04:47:28.370Z,1.70
2017-12-25T04:48:28.364Z,2.00
2017-12-25T04:49:28.358Z,2.70
2017-12-25T04:50:28.352Z,1.60
2017-12-25T04:51:28.349Z,1.50
2017-12-25T04:52:28.343Z,1.60
2017-12-25T04:53:28.342Z,1.50
2017-12-25T04:54:28.333Z,2.50
2017-12-25T04:55:28.319Z,1.50
2017-12-25T04:56:28.314Z,2.60
2017-12-25T04:57:28.307Z,1.40
2017-12-25T04:58:28.301Z,2.00
2017-12-25T04:59:28.295Z,1.50
2017-12-25T05:00:28.289Z,1.30
2017-12-25T05:01:28.283Z,1.20
2017-12-25T05:02:28.277Z,2.00
2017-12-25T05:03:28.273Z,1.50
2017-12-25T05:04:28.269Z,2.10
2017-12-25T05:05:28.261Z,1.40
2017-12-25T05:06:28.256Z,1.10
2017-12-25T05:07:28.248Z,1.80
2017-12-25T05:08:28.243Z,1.20
2017-12-25T05:09:28.236Z,1.60
2017-12-25T05:10:28.231Z,1.10
2017-12-25T05:11:28.221Z,1.30
2017-12-25T05:12:28.214Z,1.50
2017-12-25T05:13:28.207Z,1.20
2017-12-25T05:14:28.202Z,1.40
2017-12-25T05:15:28.196Z,2.30
2017-12-25T05:16:28.189Z,1.70
2017-12-25T05:17:28.184Z,2.00
2017-12-25T05:18:28.177Z,1.80
2017-12-25T05:19:28.175Z,1.70
2017-12-25T05:20:28.168Z,2.10
2017-12-25T05:21:28.163Z,1.90
2017-12-25T05:22:28.156Z,2.20
2017-12-25T05:23:28.151Z,2.10
2017-12-25T05:24:28.144Z,1.90
2017-12-25T05:25:28.137Z,2.00
2017-12-25T05:26:28.131Z,2.40
2017-12-25T05:27:28.120Z,2.00
2017-12-25T05:28:28.115Z,2.20
2017-12-25T05:29:28.108Z,2.70
2017-12-25T05:30:28.102Z,2.40
2017-12-25T05:31:28.096Z,2.80
2017-12-25T05:32:28.089Z,2.70
2017-12-25T05:33:28.083Z,2.80
2017-12-25T05:34:28.077Z,2.60
2017-12-25T05:35:28.074Z,2.40
2017-12-25T05:36:28.068Z,2.50
2017-12-25T05:37:28.062Z,2.80
2017-12-25T05:38:28.056Z,2.70
2017-12-25T05:39:28.049Z,2.90
2017-12-25T05:40:28.044Z,2.50
2017-12-25T05:41:28.037Z,2.90
2017-12-25T05:42:28.031Z,2.90
2017-12-25T05:43:28.020Z,3.90
2017-12-25T05:44:28.014Z,4.10
2017-12-25T05:45:28.008Z,3.30
2017-12-25T05:46:28.001Z,3.10
2017-12-25T05:47:27.994Z,2.70
2017-12-25T05:48:27.988Z,3.60
2017-12-25T05:49:27.983Z,3.00
2017-12-25T05:50:27.975Z,3.20
2017-12-25T05:51:27.974Z,3.00
2017-12-25T05:52:27.967Z,3.20
2017-12-25T05:53:27.961Z,3.30
2017-12-25T05:54:27.955Z,3.50
2017-12-25T05:55:27.944Z,3.50
2017-12-25T05:56:27.940Z,3.30
2017-12-25T05:57:27.932Z,2.80
2017-12-25T05:58:27.925Z,3.80
2017-12-25T05:59:27.923Z,2.60
2017-12-25T06:00:27.916Z,3.30
2017-12-25T06:01:27.910Z,2.80
2017-12-25T06:02:27.909Z,3.10
2017-12-25T06:03:27.897Z,3.20
2017-12-25T06:04:27.893Z,3.20
2017-12-25T06:05:27.886Z,2.60
2017-12-25T06:06:27.880Z,2.80
2017-12-25T06:07:27.868Z,3.00
2017-12-25T06:08:27.862Z,2.90
2017-12-25T06:09:27.855Z,3.10
2017-12-25T06:10:27.850Z,2.70
2017-12-25T06:11:27.844Z,3.70
2017-12-25T06:12:27.838Z,3.00
2017-12-25T06:13:27.831Z,2.90
2017-12-25T06:14:27.824Z,2.90
2017-12-25T06:15:27.821Z,3.30
2017-12-25T06:16:27.815Z,3.10
2017-12-25T06:17:27.808Z,2.60
2017-12-25T06:18:27.803Z,2.90
2017-12-25T06:19:27.797Z,2.80
2017-12-25T06:20:27.790Z,3.20
2017-12-25T06:21:27.783Z,2.90
2017-12-25T06:22:27.777Z,2.80
2017-12-25T06:23:27.767Z,3.00
2017-12-25T06:24:27.760Z,2.60
2017-12-25T06:25:27.753Z,3.10
2017-12-25T06:26:27.747Z,4.30
2017-12-25T06:27:27.740Z,3.10
2017-12-25T06:28:27.734Z,3.20
2017-12-25T06:29:27.729Z,3.00
2017-12-25T06:30:27.723Z,3.00
2017-12-25T06:31:27.719Z,2.90
2017-12-25T06:32:27.712Z,2.90
2017-12-25T06:33:27.706Z,2.90
2017-12-25T06:34:27.700Z,3.40
2017-12-25T06:35:27.693Z,3.40
2017-12-25T06:36:27.687Z,3.20
2017-12-25T06:37:27.682Z,3.50
2017-12-25T06:38:27.676Z,3.70
2017-12-25T06:39:27.665Z,6.40
2017-12-25T06:40:27.658Z,3.40
2017-12-25T06:41:27.652Z,3.30
2017-12-25T06:42:27.646Z,3.20
2017-12-25T06:43:27.639Z,3.50
2017-12-25T06:44:27.632Z,3.20
2017-12-25T06:45:27.629Z,3.10
2017-12-25T06:46:27.620Z,4.30
2017-12-25T06:47:27.617Z,3.20
2017-12-25T06:48:27.611Z,3.50
2017-12-25T06:49:27.605Z,3.00
2017-12-25T06:50:27.599Z,3.20
2017-12-25T06:51:27.591Z,3.50
2017-12-25T06:52:27.585Z,7.00
2017-12-25T06:53:27.579Z,2.90
2017-12-25T06:54:27.572Z,3.80
2017-12-25T06:55:27.561Z,3.50
2017-12-25T06:56:27.556Z,3.90
2017-12-25T06:57:27.548Z,3.10
2017-12-25T06:58:27.543Z,4.00
2017-12-25T06:59:27.535Z,3.20
2017-12-25T07:00:27.534Z,3.40
2017-12-25T07:01:27.524Z,3.30
2017-12-25T07:02:27.518Z,3.30
2017-12-25T07:03:27.521Z,2.90
2017-12-25T07:04:27.508Z,3.40
2017-12-25T07:05:27.505Z,3.00
2017-12-25T07:06:27.495Z,3.60
2017-12-25T07:07:27.490Z,3.00
2017-12-25T07:08:27.483Z,3.50
2017-12-25T07:09:27.477Z,3.10
2017-12-25T07:10:27.471Z,3.10
2017-12-25T07:11:27.459Z,3.00
2017-12-25T07:12:27.454Z,3.00
2017-12-25T07:13:27.447Z,3.10
2017-12-25T07:14:27.442Z,3.10
2017-12-25T07:15:27.434Z,3.10
2017-12-25T07:16:27.429Z,3.80
2017-12-25T07:17:27.421Z,3.30
2017-12-25T07:18:27.415Z,3.00
2017-12-25T07:19:27.414Z,2.90
2017-12-25T07:20:27.406Z,3.10
2017-12-25T07:21:27.400Z,3.50
2017-12-25T07:22:27.395Z,3.20
2017-12-25T07:23:27.387Z,3.10
